EXS9LY EGBB-LPMA
Flight info
| Callsign | EXS9LY |
|---|---|
| Flight time | N/A |
| Altitude | 34000 |
| Route | CPT Y321 PEPIS Q41 SAM M195 LORKU DCT EBOMO DCT COQUE DCT KORUL DCT DEMOS DCT IBIDO DCT VERAM DCT PECKY DCT LIDRO |
| Aircraft | B738/M-SDE2E3FGHIRWXY/LB1 |
Departure
| Time | 2026-05-01 15:09 |
|---|---|
| Airport | Birmingham Airport (EGBB) |
Arrival
| Time | N/A |
|---|---|
| Airport | Cristiano Ronaldo International Airport (LPMA) |
| Time | Latitude | Longitude | Altitude | Speed | Heading |
|---|---|---|---|---|---|
| 2026-05-01 14:42 | 52.44888 | -1.73404 | 322 ft | 0 kts | 146° |
| 2026-05-01 14:58 | 52.44895 | -1.73412 | 320 ft | 3 kts | 146° |
| 2026-05-01 14:59 | 52.44913 | -1.73430 | 320 ft | 3 kts | 166° |
| 2026-05-01 14:59 | 52.44932 | -1.73427 | 321 ft | 3 kts | 222° |
| 2026-05-01 14:59 | 52.44945 | -1.73402 | 319 ft | 1 kts | 236° |
| 2026-05-01 14:59 | 52.44947 | -1.73397 | 320 ft | 0 kts | 236° |
| 2026-05-01 15:02 | 52.44943 | -1.73405 | 322 ft | 4 kts | 236° |
| 2026-05-01 15:02 | 52.44906 | -1.73497 | 322 ft | 8 kts | 242° |
| 2026-05-01 15:02 | 52.44906 | -1.73587 | 322 ft | 8 kts | 293° |
| 2026-05-01 15:03 | 52.44950 | -1.73650 | 322 ft | 9 kts | 326° |
| 2026-05-01 15:03 | 52.45011 | -1.73717 | 321 ft | 12 kts | 326° |
| 2026-05-01 15:03 | 52.45088 | -1.73768 | 322 ft | 12 kts | 340° |
| 2026-05-01 15:03 | 52.45159 | -1.73839 | 322 ft | 12 kts | 326° |
| 2026-05-01 15:04 | 52.45226 | -1.73913 | 321 ft | 11 kts | 326° |
| 2026-05-01 15:04 | 52.45290 | -1.73988 | 322 ft | 11 kts | 317° |
| 2026-05-01 15:04 | 52.45329 | -1.74095 | 322 ft | 11 kts | 297° |
| 2026-05-01 15:04 | 52.45363 | -1.74203 | 321 ft | 11 kts | 297° |
| 2026-05-01 15:05 | 52.45395 | -1.74311 | 322 ft | 11 kts | 296° |
| 2026-05-01 15:05 | 52.45431 | -1.74430 | 321 ft | 12 kts | 296° |
| 2026-05-01 15:05 | 52.45467 | -1.74547 | 322 ft | 11 kts | 298° |
| 2026-05-01 15:05 | 52.45529 | -1.74634 | 322 ft | 13 kts | 326° |
| 2026-05-01 15:06 | 52.45622 | -1.74738 | 316 ft | 19 kts | 326° |
| 2026-05-01 15:06 | 52.45745 | -1.74873 | 310 ft | 22 kts | 326° |
| 2026-05-01 15:06 | 52.45871 | -1.75013 | 307 ft | 22 kts | 326° |
| 2026-05-01 15:06 | 52.45994 | -1.75150 | 304 ft | 21 kts | 326° |
| 2026-05-01 15:07 | 52.46105 | -1.75273 | 304 ft | 16 kts | 326° |
| 2026-05-01 15:07 | 52.46183 | -1.75359 | 302 ft | 13 kts | 326° |
| 2026-05-01 15:07 | 52.46217 | -1.75459 | 306 ft | 11 kts | 247° |
| 2026-05-01 15:07 | 52.46177 | -1.75559 | 310 ft | 10 kts | 236° |
| 2026-05-01 15:08 | 52.46125 | -1.75616 | 308 ft | 9 kts | 168° |
| 2026-05-01 15:08 | 52.46060 | -1.75551 | 309 ft | 23 kts | 146° |
| 2026-05-01 15:08 | 52.45737 | -1.75191 | 323 ft | 88 kts | 146° |
| 2026-05-01 15:08 | 52.45056 | -1.74435 | 328 ft | 145 kts | 146° |
| 2026-05-01 15:09 | 52.44100 | -1.73399 | 623 ft | 172 kts | 148° |
| 2026-05-01 15:09 | 52.43129 | -1.72366 | 1587 ft | 162 kts | 152° |
| 2026-05-01 15:09 | 52.42161 | -1.71331 | 2279 ft | 177 kts | 151° |
| 2026-05-01 15:09 | 52.41058 | -1.70126 | 2646 ft | 199 kts | 155° |
| 2026-05-01 15:10 | 52.39734 | -1.69450 | 3146 ft | 200 kts | 172° |
| 2026-05-01 15:10 | 52.37074 | -1.68227 | 4489 ft | 202 kts | 156° |
| 2026-05-01 15:10 | 52.35797 | -1.67174 | 5032 ft | 210 kts | 155° |
| 2026-05-01 15:11 | 52.34441 | -1.66111 | 5432 ft | 224 kts | 159° |
| 2026-05-01 15:11 | 52.31201 | -1.63942 | 6199 ft | 262 kts | 159° |
| 2026-05-01 15:11 | 52.29555 | -1.62832 | 7304 ft | 253 kts | 160° |
| 2026-05-01 15:12 | 52.27935 | -1.61752 | 8062 ft | 258 kts | 160° |
| 2026-05-01 15:12 | 52.24545 | -1.59515 | 9567 ft | 266 kts | 161° |
| 2026-05-01 15:12 | 52.22784 | -1.58566 | 10306 ft | 270 kts | 165° |
| 2026-05-01 15:13 | 52.16827 | -1.55941 | 11620 ft | 308 kts | 173° |
| 2026-05-01 15:14 | 52.12557 | -1.55188 | 13159 ft | 312 kts | 175° |
| 2026-05-01 15:14 | 52.10384 | -1.54850 | 13879 ft | 315 kts | 175° |
| 2026-05-01 15:14 | 52.05980 | -1.54129 | 15187 ft | 321 kts | 175° |
| 2026-05-01 15:15 | 52.01488 | -1.53350 | 16441 ft | 328 kts | 174° |
| 2026-05-01 15:15 | 51.96916 | -1.52533 | 17745 ft | 333 kts | 174° |
| 2026-05-01 15:16 | 51.92258 | -1.51692 | 18920 ft | 340 kts | 174° |
| 2026-05-01 15:16 | 51.87551 | -1.50840 | 20026 ft | 346 kts | 174° |
| 2026-05-01 15:17 | 51.82736 | -1.49970 | 21119 ft | 351 kts | 174° |
| 2026-05-01 15:18 | 51.75356 | -1.48638 | 22646 ft | 360 kts | 174° |
| 2026-05-01 15:18 | 51.72849 | -1.48524 | 23146 ft | 363 kts | 185° |
| 2026-05-01 15:19 | 51.65458 | -1.51739 | 24468 ft | 372 kts | 197° |
| 2026-05-01 15:19 | 51.60502 | -1.54346 | 25266 ft | 377 kts | 197° |
| 2026-05-01 15:19 | 51.58032 | -1.55633 | 25645 ft | 379 kts | 197° |
| 2026-05-01 15:20 | 51.52978 | -1.58248 | 26466 ft | 383 kts | 196° |
| 2026-05-01 15:20 | 51.50445 | -1.59551 | 27013 ft | 381 kts | 196° |
| 2026-05-01 15:20 | 51.47928 | -1.60843 | 27584 ft | 378 kts | 196° |
| 2026-05-01 15:21 | 51.45431 | -1.62122 | 28118 ft | 377 kts | 196° |
| 2026-05-01 15:21 | 51.40312 | -1.64736 | 28313 ft | 395 kts | 196° |
| 2026-05-01 15:22 | 51.32187 | -1.68872 | 28567 ft | 420 kts | 196° |
| 2026-05-01 15:22 | 51.26504 | -1.71758 | 28721 ft | 436 kts | 196° |
| 2026-05-01 15:23 | 51.23586 | -1.73237 | 28854 ft | 442 kts | 196° |
| 2026-05-01 15:23 | 51.20641 | -1.74728 | 29068 ft | 446 kts | 196° |
| 2026-05-01 15:23 | 51.17685 | -1.76223 | 29458 ft | 445 kts | 196° |
| 2026-05-01 15:23 | 51.14739 | -1.77711 | 29936 ft | 442 kts | 196° |
| 2026-05-01 15:24 | 51.11811 | -1.79189 | 30357 ft | 440 kts | 196° |
| 2026-05-01 15:24 | 51.08932 | -1.80639 | 30631 ft | 441 kts | 196° |
| 2026-05-01 15:24 | 51.06001 | -1.82113 | 30882 ft | 442 kts | 196° |
| 2026-05-01 15:24 | 51.03067 | -1.83585 | 31167 ft | 442 kts | 197° |
| 2026-05-01 15:25 | 51.00142 | -1.85052 | 31490 ft | 441 kts | 197° |
| 2026-05-01 15:25 | 50.97213 | -1.86519 | 31798 ft | 441 kts | 197° |
| 2026-05-01 15:25 | 50.94287 | -1.87982 | 32057 ft | 441 kts | 197° |
| 2026-05-01 15:25 | 50.91363 | -1.89442 | 32459 ft | 438 kts | 197° |
| 2026-05-01 15:26 | 50.88472 | -1.90884 | 32886 ft | 435 kts | 197° |
| 2026-05-01 15:26 | 50.85584 | -1.92323 | 33184 ft | 434 kts | 197° |
| 2026-05-01 15:26 | 50.82698 | -1.93759 | 33407 ft | 435 kts | 197° |
| 2026-05-01 15:26 | 50.79807 | -1.95196 | 33642 ft | 436 kts | 197° |
| 2026-05-01 15:27 | 50.76917 | -1.96629 | 33941 ft | 435 kts | 197° |
| 2026-05-01 15:27 | 50.74032 | -1.98059 | 34203 ft | 434 kts | 197° |
| 2026-05-01 15:28 | 50.65348 | -2.02351 | 34189 ft | 437 kts | 197° |
| 2026-05-01 15:28 | 50.59568 | -2.05199 | 34184 ft | 433 kts | 197° |
| 2026-05-01 15:29 | 50.50931 | -2.09441 | 34197 ft | 434 kts | 197° |
| 2026-05-01 15:30 | 50.40366 | -2.14607 | 34202 ft | 435 kts | 197° |
| 2026-05-01 15:31 | 50.23006 | -2.23045 | 34207 ft | 436 kts | 197° |
| 2026-05-01 15:32 | 50.11398 | -2.28652 | 34233 ft | 437 kts | 197° |
| 2026-05-01 15:34 | 49.94140 | -2.37079 | 34205 ft | 431 kts | 203° |